Time;durP1;ratioP1;P1;durP2;ratioP2;P2;SDS_P1;SDS_P2;PMS_P1;PMS_P2;Temp;Humidity;BMP_temperature;BMP_pressure;BME280_temperature;BME280_humidity;BME280_pressure;Samples;Min_cycle;Max_cycle;Signal;HPM_P1;HPM_P2
2022/03/08 07:53:05;;;;;;;3.45;2.38;;;3.20;99.90;;;;;;5013148;28;20061;-70
2022/03/08 07:55:31;;;;;;;3.60;1.65;;;3.60;99.90;;;;;;5044412;28;20061;-71
2022/03/08 07:57:57;;;;;;;4.20;2.25;;;3.90;99.90;;;;;;5045031;28;20029;-72
2022/03/08 08:00:24;;;;;;;3.28;2.25;;;4.10;99.90;;;;;;5043988;28;20113;-70
2022/03/08 08:02:50;;;;;;;7.25;2.22;;;4.40;99.90;;;;;;5042807;28;20033;-72
2022/03/08 08:05:17;;;;;;;6.63;2.50;;;4.70;99.90;;;;;;5044878;28;20064;-71
2022/03/08 08:07:43;;;;;;;3.65;2.05;;;5.00;99.90;;;;;;5045079;28;20025;-72
2022/03/08 08:10:10;;;;;;;3.28;2.13;;;5.20;99.90;;;;;;5026925;28;20021;-72
2022/03/08 08:12:37;;;;;;;3.53;1.58;;;5.50;99.90;;;;;;5044269;28;20060;-71
2022/03/08 08:15:04;;;;;;;4.88;2.63;;;5.50;99.90;;;;;;5044204;28;20018;-71
2022/03/08 08:17:30;;;;;;;5.90;2.20;;;5.80;99.90;;;;;;5040800;28;20072;-71
2022/03/08 08:19:56;;;;;;;3.80;2.13;;;6.00;99.90;;;;;;5043298;28;20021;-71
2022/03/08 08:22:22;;;;;;;3.88;2.00;;;6.20;99.90;;;;;;5027315;28;20612;-71
2022/03/08 08:24:47;;;;;;;4.97;2.35;;;6.30;99.90;;;;;;5040205;28;20428;-71
2022/03/08 08:27:13;;;;;;;8.60;2.53;;;6.40;99.90;;;;;;5030600;28;20048;-72
2022/03/08 08:29:39;;;;;;;6.97;2.83;;;6.50;99.90;;;;;;5035202;28;20033;-73
2022/03/08 08:32:05;;;;;;;4.38;2.28;;;6.60;99.90;;;;;;5040918;28;20033;-70
2022/03/08 08:34:32;;;;;;;4.38;2.17;;;6.70;99.90;;;;;;5034243;28;20036;-72
2022/03/08 08:36:58;;;;;;;5.78;2.75;;;6.90;99.90;;;;;;5028042;28;20085;-73
2022/03/08 08:39:26;;;;;;;6.88;3.10;;;7.10;99.90;;;;;;5028798;28;20030;-73
2022/03/08 08:41:52;;;;;;;4.32;2.40;;;7.20;99.90;;;;;;5023504;28;20555;-72
2022/03/08 08:44:19;;;;;;;16.98;3.13;;;7.30;99.90;;;;;;5005694;28;20042;-71
2022/03/08 08:46:46;;;;;;;6.03;2.95;;;7.30;99.90;;;;;;5033445;28;20175;-73
2022/03/08 08:49:12;;;;;;;4.53;2.13;;;7.50;99.90;;;;;;5036612;28;20104;-72
2022/03/08 08:51:38;;;;;;;6.82;2.65;;;7.60;99.90;;;;;;5024038;28;20069;-71
2022/03/08 08:54:06;;;;;;;14.35;3.05;;;7.80;99.90;;;;;;5039957;28;20053;-72
2022/03/08 08:56:35;;;;;;;3.22;2.28;;;7.90;99.90;;;;;;5027860;28;20041;-70
2022/03/08 08:59:08;;;;;;;7.07;3.30;;;8.00;99.90;;;;;;5023899;28;20029;-71
2022/03/08 09:01:34;;;;;;;3.22;1.90;;;8.20;99.90;;;;;;5023573;28;20060;-74
2022/03/08 09:04:00;;;;;;;6.95;2.50;;;8.20;99.90;;;;;;5041849;28;20084;-73
2022/03/08 09:06:26;;;;;;;7.32;2.38;;;8.30;99.90;;;;;;5023033;28;20062;-70
2022/03/08 09:08:52;;;;;;;6.97;2.60;;;8.40;99.90;;;;;;5044085;28;20033;-70
2022/03/08 09:11:18;;;;;;;5.25;2.38;;;8.40;99.90;;;;;;5043501;28;20108;-73
2022/03/08 09:13:43;;;;;;;6.75;2.60;;;8.50;99.90;;;;;;5043188;28;20060;-72
2022/03/08 09:16:09;;;;;;;8.20;3.33;;;8.50;99.90;;;;;;5024833;28;20026;-71
2022/03/08 09:18:37;;;;;;;6.28;2.50;;;8.60;99.90;;;;;;5033850;28;20017;-71
2022/03/08 09:21:04;;;;;;;5.88;2.95;;;8.70;99.90;;;;;;5025786;28;20072;-73
2022/03/08 09:23:30;;;;;;;4.70;2.55;;;8.70;99.90;;;;;;5024352;28;20497;-72
2022/03/08 09:25:55;;;;;;;5.20;2.75;;;8.80;99.90;;;;;;5029659;28;20025;-71
2022/03/08 09:28:21;;;;;;;5.57;2.72;;;8.90;99.90;;;;;;5041987;28;20025;-73
2022/03/08 09:30:48;;;;;;;6.60;2.78;;;9.10;99.90;;;;;;5043370;28;20029;-73
2022/03/08 09:33:14;;;;;;;6.13;2.85;;;9.20;99.90;;;;;;5026444;28;20114;-71
2022/03/08 09:35:39;;;;;;;5.05;2.53;;;9.40;99.90;;;;;;5043261;28;20034;-72
2022/03/08 09:38:05;;;;;;;4.22;2.17;;;9.50;99.90;;;;;;5034505;28;20365;-73
2022/03/08 09:40:31;;;;;;;8.25;2.78;;;9.50;99.90;;;;;;5036831;28;20026;-71
2022/03/08 09:42:57;;;;;;;8.15;2.63;;;9.50;99.90;;;;;;5024079;28;20030;-71
2022/03/08 09:45:22;;;;;;;5.68;2.58;;;9.60;99.90;;;;;;5006378;28;20038;-71
2022/03/08 09:47:49;;;;;;;4.50;2.75;;;9.60;99.90;;;;;;5023733;28;20085;-72
2022/03/08 09:50:16;;;;;;;7.90;3.08;;;9.80;99.90;;;;;;5023644;28;20033;-71
2022/03/08 09:52:42;;;;;;;3.97;2.05;;;10.00;99.90;;;;;;5038388;28;20085;-72
2022/03/08 09:55:12;;;;;;;5.90;2.47;;;10.20;99.90;;;;;;5024011;28;20072;-72
2022/03/08 09:57:41;;;;;;;6.03;2.60;;;10.40;99.90;;;;;;5015981;28;20053;-72
2022/03/08 10:00:09;;;;;;;9.90;2.55;;;10.60;99.90;;;;;;5023600;28;20118;-73
2022/03/08 10:02:55;;;;;;;8.85;2.38;;;10.80;99.90;;;;;;5028912;28;20086;-73
2022/03/08 10:05:43;;;;;;;4.13;2.17;;;10.80;99.90;;;;;;5006368;28;20041;-73
2022/03/08 10:08:19;;;;;;;5.43;2.72;;;10.90;99.90;;;;;;5024021;28;20081;-71
2022/03/08 10:11:04;;;;;;;14.57;2.47;;;10.90;99.90;;;;;;5026239;28;20026;-71
2022/03/08 10:13:40;;;;;;;4.65;2.42;;;11.10;99.90;;;;;;5045724;28;20029;-73
2022/03/08 10:16:12;;;;;;;6.15;3.00;;;11.30;99.90;;;;;;5045845;28;20033;-73
2022/03/08 10:18:46;;;;;;;3.90;1.88;;;11.40;99.90;;;;;;5034061;28;20026;-71
2022/03/08 10:21:35;;;;;;;8.00;1.85;;;11.50;99.90;;;;;;5028231;28;20057;-73
2022/03/08 10:24:23;;;;;;;4.97;2.13;;;11.70;99.90;;;;;;5041530;28;20076;-71
2022/03/08 10:26:59;;;;;;;4.70;2.33;;;11.70;99.90;;;;;;5035183;28;20033;-71
2022/03/08 10:29:27;;;;;;;4.25;1.98;;;11.70;99.90;;;;;;5024998;28;20073;-72
2022/03/08 10:32:21;;;;;;;5.38;1.95;;;11.80;99.90;;;;;;5046790;28;20037;-71
2022/03/08 10:34:54;;;;;;;5.47;2.20;;;12.00;99.90;;;;;;5047213;28;20061;-71
2022/03/08 10:37:24;;;;;;;7.40;2.10;;;12.20;99.90;;;;;;5042799;28;20026;-73
2022/03/08 10:40:00;;;;;;;11.73;2.42;;;12.40;99.90;;;;;;5033186;28;20091;-70
2022/03/08 10:42:35;;;;;;;1.90;1.30;;;12.30;99.90;;;;;;5044199;28;20393;-72
2022/03/08 10:45:11;;;;;;;5.15;2.00;;;12.30;99.90;;;;;;5038941;28;20041;-71
2022/03/08 10:47:43;;;;;;;3.10;1.60;;;12.40;99.90;;;;;;5030873;28;20037;-73
2022/03/08 10:50:14;;;;;;;5.95;2.03;;;12.50;99.90;;;;;;5034955;28;20048;-73
2022/03/08 10:52:46;;;;;;;4.20;1.85;;;12.60;99.90;;;;;;5036364;28;20046;-72
2022/03/08 10:55:19;;;;;;;5.38;1.80;;;12.70;99.90;;;;;;5033479;28;20029;-70
2022/03/08 10:57:50;;;;;;;7.22;1.65;;;12.80;99.90;;;;;;5042832;28;20029;-73
2022/03/08 11:00:18;;;;;;;6.72;1.48;;;13.00;99.90;;;;;;5035027;28;20071;-74
2022/03/08 11:02:53;;;;;;;1.67;1.00;;;13.20;99.90;;;;;;5032588;28;20030;-71
2022/03/08 11:05:20;;;;;;;5.95;1.65;;;13.30;99.90;;;;;;5035215;28;20378;-72
2022/03/08 11:08:02;;;;;;;2.78;1.20;;;13.40;99.90;;;;;;5045587;28;20553;-73
2022/03/08 11:10:29;;;;;;;5.95;1.67;;;13.50;99.90;;;;;;5028596;28;20021;-73
2022/03/08 11:12:56;;;;;;;2.58;1.70;;;13.70;99.90;;;;;;5038399;28;20032;-71
2022/03/08 11:15:23;;;;;;;6.05;1.25;;;13.90;99.90;;;;;;5038420;28;20032;-70
2022/03/08 11:17:51;;;;;;;3.17;1.30;;;14.00;99.90;;;;;;5019811;28;20052;-74
2022/03/08 11:20:19;;;;;;;4.43;1.08;;;14.10;99.90;;;;;;5032938;28;20485;-74
2022/03/08 11:22:47;;;;;;;3.38;1.30;;;14.20;99.90;;;;;;5045797;28;20484;-73
2022/03/08 11:25:16;;;;;;;4.63;1.52;;;14.00;99.90;;;;;;5033029;28;20056;-74
2022/03/08 11:27:44;;;;;;;2.97;1.08;;;13.90;99.90;;;;;;5016881;28;20037;-74
2022/03/08 11:30:13;;;;;;;15.88;1.58;;;14.20;99.90;;;;;;5008513;28;20046;-71
2022/03/08 11:33:06;;;;;;;3.58;1.55;;;14.20;99.90;;;;;;5026164;28;20030;-71
2022/03/08 11:36:01;;;;;;;2.97;1.35;;;14.20;99.90;;;;;;5040136;28;20096;-71
2022/03/08 11:38:27;;;;;;;3.08;1.40;;;14.30;99.90;;;;;;5021063;28;20034;-70
2022/03/08 11:40:57;;;;;;;3.42;1.52;;;14.20;99.90;;;;;;5036054;28;20044;-74
2022/03/08 11:43:42;;;;;;;5.07;1.45;;;14.30;99.90;;;;;;5027066;28;20067;-76
2022/03/08 11:46:14;;;;;;;1.73;0.63;;;14.40;99.90;;;;;;5045209;28;20071;-74
2022/03/08 11:49:05;;;;;;;6.07;1.40;;;14.50;99.90;;;;;;5045632;28;20519;-70
2022/03/08 11:51:34;;;;;;;1.25;0.80;;;14.60;99.90;;;;;;5041251;28;20029;-71
2022/03/08 11:54:05;;;;;;;2.88;1.20;;;14.90;99.90;;;;;;5045649;28;20044;-71
2022/03/08 11:56:48;;;;;;;2.28;1.00;;;15.10;99.90;;;;;;5026279;28;20034;-72
2022/03/08 11:59:14;;;;;;;2.75;1.13;;;15.40;99.90;;;;;;5024758;28;20029;-72
2022/03/08 12:01:42;;;;;;;3.92;0.85;;;15.60;99.90;;;;;;5045659;28;20437;-74
2022/03/08 12:04:14;;;;;;;0.75;0.65;;;15.70;99.90;;;;;;5026638;28;20056;-71
2022/03/08 12:06:41;;;;;;;0.88;0.50;;;15.80;99.90;;;;;;5044843;28;20036;-73
2022/03/08 12:09:13;;;;;;;1.02;0.63;;;15.90;99.90;;;;;;5045251;28;20057;-75
2022/03/08 12:11:44;;;;;;;1.58;0.70;;;15.70;99.90;;;;;;5040843;28;20053;-71
2022/03/08 12:14:12;;;;;;;2.13;1.02;;;15.60;99.90;;;;;;5044828;28;20048;-75
2022/03/08 12:16:40;;;;;;;1.05;0.60;;;15.80;99.40;;;;;;5023866;28;20037;-71
2022/03/08 12:19:08;;;;;;;1.75;0.63;;;16.00;98.80;;;;;;5018141;28;20101;-72
2022/03/08 12:21:39;;;;;;;2.35;1.08;;;16.10;98.40;;;;;;5025730;28;20034;-72
2022/03/08 12:24:17;;;;;;;1.00;0.73;;;16.40;99.40;;;;;;5037999;28;20063;-75
2022/03/08 12:26:50;;;;;;;1.67;0.93;;;16.50;97.60;;;;;;5043620;28;20029;-75
2022/03/08 12:29:20;;;;;;;1.20;0.75;;;16.60;96.60;;;;;;5038867;28;20397;-75
2022/03/08 12:31:58;;;;;;;1.45;0.90;;;16.50;95.80;;;;;;5024312;28;20030;-74
2022/03/08 12:34:35;;;;;;;4.93;1.10;;;16.50;96.20;;;;;;5024535;28;20038;-76
2022/03/08 12:37:10;;;;;;;1.35;0.68;;;16.70;95.80;;;;;;5023612;28;20405;-75
2022/03/08 12:39:57;;;;;;;1.40;0.90;;;16.80;96.90;;;;;;5040647;28;20381;-74
2022/03/08 12:42:30;;;;;;;3.15;1.10;;;17.00;95.40;;;;;;5034233;28;20021;-74
2022/03/08 12:45:04;;;;;;;1.65;0.50;;;17.20;96.40;;;;;;5045539;28;20032;-73
2022/03/08 12:47:39;;;;;;;2.97;0.75;;;17.40;94.80;;;;;;5040912;28;20398;-72
2022/03/08 12:50:28;;;;;;;0.70;0.40;;;17.40;94.50;;;;;;5040698;28;20034;-73
2022/03/08 12:52:56;;;;;;;2.78;0.82;;;17.40;92.80;;;;;;5034313;28;20053;-76
2022/03/08 12:55:35;;;;;;;1.67;0.77;;;17.60;93.50;;;;;;5044050;28;20045;-71
2022/03/08 12:58:07;;;;;;;4.53;0.73;;;17.60;91.70;;;;;;5044039;28;20029;-74
2022/03/08 13:00:57;;;;;;;1.75;0.80;;;17.40;91.50;;;;;;5044055;28;20100;-75
2022/03/08 13:03:25;;;;;;;0.60;0.47;;;17.40;91.10;;;;;;5041251;28;20034;-76
2022/03/08 13:05:54;;;;;;;4.97;0.60;;;17.20;91.20;;;;;;5038323;28;20036;-74
2022/03/08 13:08:22;;;;;;;1.23;0.47;;;17.00;90.90;;;;;;5021599;28;20063;-74
2022/03/08 13:10:55;;;;;;;1.00;0.60;;;17.10;91.40;;;;;;5021906;28;20045;-71
2022/03/08 13:13:23;;;;;;;1.33;0.52;;;17.30;91.00;;;;;;5006176;28;20738;-73
2022/03/08 13:15:50;;;;;;;2.80;0.88;;;17.50;90.70;;;;;;5023968;28;20089;-71
2022/03/08 13:18:24;;;;;;;3.42;0.43;;;17.70;91.40;;;;;;5024076;28;20030;-73
2022/03/08 13:20:55;;;;;;;1.17;0.70;;;17.70;90.00;;;;;;5040764;28;20036;-71
2022/03/08 13:23:23;;;;;;;10.50;0.93;;;17.50;89.80;;;;;;5043700;28;20048;-72
2022/03/08 13:25:51;;;;;;;1.08;0.50;;;17.40;90.10;;;;;;5039636;28;20043;-72
2022/03/08 13:28:19;;;;;;;0.70;0.50;;;17.30;89.60;;;;;;5043349;28;20034;-73
2022/03/08 13:30:52;;;;;;;1.50;0.80;;;17.20;90.60;;;;;;5043856;28;20029;-73
2022/03/08 13:33:28;;;;;;;1.80;0.52;;;17.20;89.60;;;;;;5043348;28;20088;-74
2022/03/08 13:36:07;;;;;;;0.80;0.40;;;17.20;88.40;;;;;;5025791;28;20040;-73
2022/03/08 13:38:47;;;;;;;3.63;0.55;;;17.10;88.80;;;;;;5044048;28;20380;-75
2022/03/08 13:41:16;;;;;;;3.15;0.95;;;17.20;87.70;;;;;;5043366;28;20036;-74
2022/03/08 13:43:48;;;;;;;1.60;0.50;;;17.30;88.10;;;;;;5036171;28;20045;-74
2022/03/08 13:46:19;;;;;;;0.85;0.50;;;17.30;86.60;;;;;;5020260;28;20026;-73
2022/03/08 13:49:06;;;;;;;0.82;0.57;;;17.50;86.30;;;;;;5042412;28;20033;-73
2022/03/08 13:51:39;;;;;;;2.67;0.73;;;17.40;85.80;;;;;;5047113;28;20405;-74
2022/03/08 13:54:08;;;;;;;1.02;0.80;;;17.50;86.30;;;;;;5047278;28;20040;-74
2022/03/08 13:56:48;;;;;;;1.20;0.73;;;17.50;85.50;;;;;;5033484;28;20033;-72
2022/03/08 13:59:32;;;;;;;1.15;0.60;;;17.50;84.80;;;;;;5047279;28;20036;-76
2022/03/08 14:02:06;;;;;;;1.67;0.70;;;17.60;84.60;;;;;;5028934;28;20029;-74
2022/03/08 14:04:33;;;;;;;2.38;0.68;;;17.80;84.70;;;;;;5047243;28;20095;-71
2022/03/08 14:07:01;;;;;;;1.17;0.63;;;17.90;86.00;;;;;;5028926;28;20469;-76
2022/03/08 14:09:27;;;;;;;0.68;0.47;;;18.00;85.00;;;;;;5046513;28;20080;-72
2022/03/08 14:11:58;;;;;;;1.67;0.63;;;17.90;84.80;;;;;;5042050;28;20033;-74
2022/03/08 14:14:28;;;;;;;0.77;0.50;;;18.10;85.00;;;;;;5026267;28;20033;-75
2022/03/08 14:16:54;;;;;;;1.27;0.73;;;18.30;82.90;;;;;;5046494;28;20013;-71
2022/03/08 14:19:23;;;;;;;0.88;0.65;;;18.30;84.30;;;;;;5046429;28;20033;-72
2022/03/08 14:21:49;;;;;;;1.65;0.90;;;18.60;85.40;;;;;;5046025;28;20427;-73
2022/03/08 14:24:21;;;;;;;0.75;0.60;;;19.20;84.60;;;;;;5027722;28;20064;-72
2022/03/08 14:26:59;;;;;;;2.85;0.95;;;19.40;83.50;;;;;;5044263;28;20029;-74
2022/03/08 14:29:25;;;;;;;2.30;0.80;;;19.40;82.20;;;;;;5041061;28;20034;-71
2022/03/08 14:31:51;;;;;;;1.40;0.75;;;19.40;81.70;;;;;;5045764;28;20061;-77
2022/03/08 14:34:19;;;;;;;0.98;0.63;;;19.20;80.50;;;;;;5046277;28;20056;-71
2022/03/08 14:36:50;;;;;;;1.48;0.70;;;18.90;80.50;;;;;;5044319;28;20025;-72
2022/03/08 14:39:25;;;;;;;1.17;0.38;;;18.90;80.70;;;;;;5008262;28;20442;-72
2022/03/08 14:42:09;;;;;;;0.98;0.60;;;18.80;80.30;;;;;;5008413;28;20374;-74
2022/03/08 14:44:43;;;;;;;1.73;0.80;;;18.80;78.30;;;;;;5025630;28;20069;-72
2022/03/08 14:47:12;;;;;;;3.35;1.02;;;18.60;79.50;;;;;;5025972;28;20030;-72
2022/03/08 14:49:39;;;;;;;1.20;0.57;;;18.30;78.50;;;;;;5032916;28;20056;-72
2022/03/08 14:52:14;;;;;;;1.17;0.50;;;18.30;79.60;;;;;;5045233;28;20046;-73
2022/03/08 14:54:40;;;;;;;1.65;0.70;;;18.50;80.50;;;;;;5016450;28;20072;-73
2022/03/08 14:57:06;;;;;;;0.77;0.65;;;18.70;79.90;;;;;;5044836;28;20037;-73
2022/03/08 14:59:33;;;;;;;2.40;0.65;;;18.80;79.80;;;;;;5044943;28;20018;-73
2022/03/08 15:01:59;;;;;;;1.30;0.80;;;18.90;78.90;;;;;;5043682;28;20123;-73
2022/03/08 15:04:29;;;;;;;2.75;1.10;;;18.80;78.90;;;;;;5025776;28;20454;-71
2022/03/08 15:06:57;;;;;;;1.95;0.70;;;18.70;78.00;;;;;;5042493;28;20051;-73
2022/03/08 15:09:22;;;;;;;1.95;0.95;;;18.70;78.50;;;;;;5045507;28;20030;-69
2022/03/08 15:11:52;;;;;;;1.50;0.77;;;18.70;78.40;;;;;;5025568;28;20057;-71
2022/03/08 15:14:18;;;;;;;2.90;1.00;;;19.10;79.10;;;;;;5008481;28;20085;-72
2022/03/08 15:16:44;;;;;;;1.90;0.90;;;19.40;79.00;;;;;;5042550;28;20032;-73
2022/03/08 15:19:10;;;;;;;1.60;0.70;;;19.40;79.00;;;;;;5039338;28;20030;-71
2022/03/08 15:21:41;;;;;;;1.30;0.70;;;19.60;79.90;;;;;;5040241;28;20048;-72
2022/03/08 15:24:07;;;;;;;1.15;0.63;;;19.70;79.50;;;;;;5029802;28;20039;-75
2022/03/08 15:26:35;;;;;;;1.58;0.65;;;19.70;75.60;;;;;;5039457;28;20026;-75
2022/03/08 15:29:02;;;;;;;1.90;0.40;;;19.40;76.20;;;;;;5035184;28;20456;-74
2022/03/08 15:31:28;;;;;;;1.00;0.60;;;19.20;76.40;;;;;;5030498;28;20037;-70
2022/03/08 15:33:54;;;;;;;1.42;0.60;;;19.20;76.80;;;;;;5024277;28;20193;-71
2022/03/08 15:36:20;;;;;;;1.88;0.85;;;19.00;75.80;;;;;;5045164;28;20025;-75
2022/03/08 15:38:47;;;;;;;1.15;0.63;;;18.90;75.40;;;;;;5027370;28;20044;-76
2022/03/08 15:41:14;;;;;;;2.03;0.75;;;18.70;75.80;;;;;;5027186;28;20032;-72
2022/03/08 15:43:40;;;;;;;1.52;0.80;;;18.60;77.60;;;;;;5045059;28;20048;-73
2022/03/08 15:46:11;;;;;;;1.67;0.55;;;18.70;75.80;;;;;;5022247;28;20044;-74
2022/03/08 15:48:40;;;;;;;1.20;0.77;;;18.70;77.40;;;;;;5038783;28;20366;-73
2022/03/08 15:51:08;;;;;;;1.40;0.70;;;18.80;76.90;;;;;;5034740;28;20040;-74
2022/03/08 15:53:33;;;;;;;1.92;1.05;;;19.00;77.80;;;;;;5037577;28;20049;-70
2022/03/08 15:55:59;;;;;;;1.30;0.75;;;19.10;77.70;;;;;;5025864;28;20161;-74
2022/03/08 15:58:36;;;;;;;1.85;0.93;;;18.90;76.40;;;;;;5025981;28;20025;-72
2022/03/08 16:01:02;;;;;;;1.67;0.77;;;18.80;76.30;;;;;;5027613;28;20097;-72
2022/03/08 16:03:28;;;;;;;1.20;0.63;;;18.70;77.20;;;;;;5025578;28;20030;-71
2022/03/08 16:05:53;;;;;;;1.60;0.77;;;18.90;78.00;;;;;;5025195;28;20700;-72
2022/03/08 16:08:19;;;;;;;2.38;0.88;;;18.80;77.50;;;;;;5039014;28;20037;-73
2022/03/08 16:10:51;;;;;;;1.38;0.80;;;18.20;77.60;;;;;;5044574;28;20037;-72
2022/03/08 16:13:17;;;;;;;2.03;0.73;;;17.40;79.80;;;;;;5044570;28;20028;-72
2022/03/08 16:15:44;;;;;;;1.52;0.82;;;17.20;80.90;;;;;;5044406;28;20029;-72
2022/03/08 16:18:12;;;;;;;0.50;0.50;;;17.20;80.60;;;;;;5027742;28;20061;-72
2022/03/08 16:20:39;;;;;;;2.53;1.17;;;16.60;80.90;;;;;;5028116;28;20033;-72
2022/03/08 16:23:06;;;;;;;0.55;0.30;;;15.90;81.90;;;;;;5045066;28;20388;-76
2022/03/08 16:25:32;;;;;;;1.10;0.75;;;15.20;82.80;;;;;;5026655;28;20381;-71
2022/03/08 16:27:58;;;;;;;4.60;1.35;;;14.60;84.40;;;;;;5034693;28;20068;-71
2022/03/08 16:30:24;;;;;;;5.75;0.70;;;14.00;85.60;;;;;;5011650;28;20477;-72
2022/03/08 16:32:49;;;;;;;4.00;0.90;;;13.60;86.30;;;;;;5044788;28;20047;-74
2022/03/08 16:35:15;;;;;;;1.50;0.80;;;13.20;87.40;;;;;;5044406;28;20055;-71
2022/03/08 16:37:41;;;;;;;1.02;0.52;;;12.90;88.20;;;;;;5044658;28;20021;-72
2022/03/08 16:40:09;;;;;;;1.30;0.80;;;12.70;89.00;;;;;;5027015;28;20093;-73
2022/03/08 16:42:37;;;;;;;2.55;0.90;;;12.50;90.10;;;;;;5024799;28;20678;-72
2022/03/08 16:45:04;;;;;;;4.43;0.73;;;12.40;89.70;;;;;;5025107;28;20049;-72
2022/03/08 16:47:30;;;;;;;1.67;0.95;;;12.20;90.20;;;;;;5032780;28;20093;-73
2022/03/08 16:49:55;;;;;;;2.75;0.88;;;12.10;90.60;;;;;;5044474;28;20033;-71
2022/03/08 16:52:21;;;;;;;1.45;0.55;;;12.10;90.60;;;;;;5037263;28;20054;-72
2022/03/08 16:54:46;;;;;;;0.90;0.57;;;11.80;90.80;;;;;;5006803;28;20121;-71
2022/03/08 16:57:12;;;;;;;1.35;0.60;;;11.70;91.10;;;;;;5022552;28;20080;-70
2022/03/08 16:59:38;;;;;;;1.38;0.80;;;11.60;91.50;;;;;;5025934;28;20033;-72
2022/03/08 17:02:06;;;;;;;5.25;0.60;;;11.50;91.70;;;;;;5029421;28;20029;-72
2022/03/08 17:04:32;;;;;;;2.35;0.55;;;11.50;92.00;;;;;;5032843;28;20041;-71
2022/03/08 17:06:57;;;;;;;3.38;0.82;;;11.30;92.10;;;;;;5037086;28;20041;-72
2022/03/08 17:09:23;;;;;;;1.10;0.50;;;11.20;92.20;;;;;;5017835;28;20097;-72
2022/03/08 17:11:58;;;;;;;1.20;0.40;;;11.10;92.60;;;;;;5040974;28;20053;-73
2022/03/08 17:14:24;;;;;;;2.03;0.70;;;11.00;92.80;;;;;;5006787;28;20563;-70
2022/03/08 17:16:50;;;;;;;0.88;0.50;;;10.90;92.60;;;;;;5024177;28;20343;-72
2022/03/08 17:19:16;;;;;;;1.83;0.50;;;10.80;92.50;;;;;;5024428;28;20064;-71
2022/03/08 17:21:42;;;;;;;0.38;0.38;;;10.70;93.10;;;;;;5031387;28;20034;-73
2022/03/08 17:24:08;;;;;;;1.02;0.90;;;10.50;94.20;;;;;;5037526;28;20081;-71
2022/03/08 17:26:34;;;;;;;0.65;0.47;;;10.30;94.10;;;;;;5047797;28;20030;-72
2022/03/08 17:29:00;;;;;;;5.35;1.42;;;10.10;94.40;;;;;;5036446;28;20026;-71
2022/03/08 17:31:26;;;;;;;7.30;1.50;;;10.00;94.60;;;;;;5028505;28;20049;-72
2022/03/08 17:33:51;;;;;;;4.05;1.48;;;9.90;94.50;;;;;;5028167;28;20034;-71
2022/03/08 17:36:17;;;;;;;3.45;1.70;;;9.90;95.80;;;;;;5028123;28;20363;-72
2022/03/08 17:38:42;;;;;;;2.95;1.42;;;9.80;94.90;;;;;;5027704;28;20026;-72
2022/03/08 17:41:12;;;;;;;2.75;1.38;;;9.70;95.20;;;;;;5028221;28;20046;-72
2022/03/08 17:43:38;;;;;;;3.10;1.23;;;9.60;94.40;;;;;;5036354;28;20049;-71
2022/03/08 17:46:06;;;;;;;5.15;1.48;;;9.60;94.30;;;;;;5029623;28;20748;-74
2022/03/08 17:48:32;;;;;;;5.97;2.15;;;9.50;94.60;;;;;;5026884;28;20030;-72
2022/03/08 17:50:58;;;;;;;1.75;0.98;;;9.50;94.60;;;;;;5027717;28;20037;-73
2022/03/08 17:53:24;;;;;;;2.60;1.33;;;9.40;94.90;;;;;;5027608;28;20057;-73
2022/03/08 17:55:49;;;;;;;2.13;1.30;;;9.20;94.70;;;;;;5010277;28;20125;-71
2022/03/08 17:58:15;;;;;;;1.60;0.75;;;9.00;95.20;;;;;;5035169;28;20034;-72
2022/03/08 18:00:41;;;;;;;2.00;0.80;;;8.90;94.90;;;;;;5031805;28;20046;-73
2022/03/08 18:03:07;;;;;;;1.77;1.08;;;8.90;95.00;;;;;;5028202;28;20053;-74
2022/03/08 18:05:34;;;;;;;0.77;0.70;;;8.80;95.30;;;;;;5027512;28;20034;-72
2022/03/08 18:07:59;;;;;;;2.28;0.70;;;8.80;95.80;;;;;;5027617;28;20416;-72
2022/03/08 18:10:25;;;;;;;2.75;0.95;;;8.90;95.30;;;;;;5028259;28;20076;-72
2022/03/08 18:12:50;;;;;;;1.23;0.70;;;8.90;95.60;;;;;;5027854;28;20030;-71
2022/03/08 18:15:16;;;;;;;1.20;0.50;;;8.90;96.10;;;;;;5059746;28;20505;-73
2022/03/08 18:17:42;;;;;;;0.73;0.30;;;8.80;96.30;;;;;;5027175;28;20076;-72
2022/03/08 18:20:09;;;;;;;0.88;0.38;;;8.80;96.10;;;;;;5033619;28;20116;-72
2022/03/08 18:22:36;;;;;;;0.65;0.47;;;8.70;96.60;;;;;;5033990;28;20036;-74
2022/03/08 18:25:02;;;;;;;2.08;0.65;;;8.80;96.30;;;;;;5028351;28;20056;-72
2022/03/08 18:27:27;;;;;;;1.33;0.47;;;8.70;96.30;;;;;;5040311;28;20053;-73
2022/03/08 18:29:53;;;;;;;1.77;0.60;;;8.70;96.50;;;;;;5046505;28;20049;-72
2022/03/08 18:32:19;;;;;;;1.45;1.00;;;8.70;96.70;;;;;;5030841;28;20068;-72
2022/03/08 18:34:45;;;;;;;1.23;0.68;;;8.70;97.30;;;;;;5023810;28;20029;-72
2022/03/08 18:37:10;;;;;;;1.98;0.60;;;8.50;97.80;;;;;;5031166;28;20090;-71
2022/03/08 18:39:36;;;;;;;1.65;0.65;;;8.40;98.20;;;;;;5037656;28;20436;-72
2022/03/08 18:42:02;;;;;;;2.95;1.25;;;8.30;97.80;;;;;;5046845;28;20081;-72
2022/03/08 18:44:28;;;;;;;1.58;1.05;;;8.30;97.80;;;;;;5028696;28;20045;-73
2022/03/08 18:46:53;;;;;;;1.05;0.73;;;8.30;97.80;;;;;;5021140;28;20080;-74
2022/03/08 18:49:19;;;;;;;1.25;0.75;;;8.30;97.50;;;;;;5009433;28;20026;-73
2022/03/08 18:51:46;;;;;;;1.35;0.80;;;8.30;97.70;;;;;;5045817;28;20121;-72
2022/03/08 18:54:14;;;;;;;1.67;0.60;;;8.30;97.80;;;;;;5045759;28;20056;-72
2022/03/08 18:56:40;;;;;;;1.35;0.70;;;8.20;97.60;;;;;;5028800;28;20026;-73
2022/03/08 18:59:08;;;;;;;1.08;0.57;;;8.20;97.60;;;;;;5026651;28;20026;-71
2022/03/08 19:01:41;;;;;;;1.85;0.50;;;8.10;97.90;;;;;;5028581;28;20029;-71
2022/03/08 19:04:06;;;;;;;1.02;0.70;;;8.10;98.00;;;;;;5041041;28;20029;-72
2022/03/08 19:06:32;;;;;;;2.33;0.60;;;8.00;98.30;;;;;;5036357;28;20029;-71
2022/03/08 19:09:07;;;;;;;1.90;0.80;;;8.00;98.50;;;;;;5016806;28;20018;-73
2022/03/08 19:11:42;;;;;;;5.00;1.95;;;7.90;98.60;;;;;;5019799;28;20038;-72
2022/03/08 19:14:08;;;;;;;0.77;0.60;;;7.90;99.20;;;;;;5041055;28;20394;-73
2022/03/08 19:16:35;;;;;;;2.78;0.88;;;7.80;99.10;;;;;;5017829;28;20092;-73
2022/03/08 19:19:00;;;;;;;5.97;0.98;;;7.70;99.40;;;;;;5016793;28;20046;-71
2022/03/08 19:21:26;;;;;;;5.32;1.27;;;7.70;99.50;;;;;;5018077;28;20029;-74
2022/03/08 19:23:52;;;;;;;1.95;1.05;;;7.70;99.70;;;;;;5040496;28;20076;-73
2022/03/08 19:26:18;;;;;;;1.83;0.90;;;7.60;99.40;;;;;;5014848;28;20485;-71
2022/03/08 19:28:44;;;;;;;2.50;1.00;;;7.60;99.70;;;;;;5034168;28;20029;-70
2022/03/08 19:31:10;;;;;;;2.95;1.10;;;7.50;99.90;;;;;;5034350;28;20084;-74
2022/03/08 19:33:38;;;;;;;1.27;0.90;;;7.50;99.90;;;;;;5037765;28;20022;-73
2022/03/08 19:36:05;;;;;;;5.03;1.33;;;7.40;99.90;;;;;;5034890;28;20034;-73
2022/03/08 19:38:37;;;;;;;1.65;0.90;;;7.40;99.90;;;;;;5033506;28;20030;-72
2022/03/08 19:41:03;;;;;;;1.70;0.98;;;7.40;99.90;;;;;;5036265;28;20052;-72
2022/03/08 19:43:29;;;;;;;4.10;1.33;;;7.30;99.90;;;;;;5033680;28;20030;-72
2022/03/08 19:46:07;;;;;;;3.95;1.38;;;7.30;99.90;;;;;;5037012;28;20124;-73
2022/03/08 19:48:32;;;;;;;1.52;1.02;;;7.30;99.90;;;;;;5027993;28;20421;-72
2022/03/08 19:50:59;;;;;;;2.45;1.10;;;7.10;99.90;;;;;;5019981;28;20026;-71
2022/03/08 19:53:24;;;;;;;1.63;0.90;;;7.00;99.90;;;;;;5031943;28;20049;-72
2022/03/08 19:55:57;;;;;;;2.25;0.90;;;6.90;99.90;;;;;;5018843;28;20468;-72
2022/03/08 19:58:26;;;;;;;3.30;1.07;;;6.80;99.90;;;;;;5031972;28;20062;-73
2022/03/08 20:00:52;;;;;;;0.77;0.70;;;6.70;99.90;;;;;;5033631;28;20276;-72
2022/03/08 20:03:18;;;;;;;2.22;0.93;;;6.70;99.90;;;;;;5037442;28;20028;-70
2022/03/08 20:05:48;;;;;;;1.25;0.98;;;6.60;99.90;;;;;;5014641;28;20030;-72
2022/03/08 20:08:14;;;;;;;2.80;0.85;;;6.60;99.90;;;;;;5040663;28;20032;-74
2022/03/08 20:10:41;;;;;;;1.73;1.00;;;6.60;99.90;;;;;;5043876;28;20093;-73
2022/03/08 20:13:07;;;;;;;3.92;1.17;;;6.70;99.90;;;;;;5043626;28;20519;-72
2022/03/08 20:15:36;;;;;;;4.10;1.40;;;6.80;99.90;;;;;;5041337;28;20026;-71
2022/03/08 20:18:03;;;;;;;3.85;1.63;;;6.80;99.90;;;;;;5024274;28;20536;-72
2022/03/08 20:20:29;;;;;;;7.03;1.92;;;6.80;99.90;;;;;;5023728;28;20042;-70
2022/03/08 20:22:58;;;;;;;3.22;1.33;;;6.80;99.90;;;;;;5024216;28;20558;-71
2022/03/08 20:25:24;;;;;;;4.63;1.00;;;6.70;99.90;;;;;;5023759;28;20057;-72
2022/03/08 20:27:50;;;;;;;0.85;0.50;;;6.70;99.90;;;;;;5024134;28;20041;-70
2022/03/08 20:30:16;;;;;;;3.40;1.10;;;6.70;99.90;;;;;;5024257;28;20049;-70
2022/03/08 20:32:43;;;;;;;1.88;0.95;;;6.50;99.90;;;;;;5035122;28;20026;-73
2022/03/08 20:35:10;;;;;;;2.85;1.17;;;6.40;99.90;;;;;;5044276;28;20396;-72
2022/03/08 20:37:36;;;;;;;1.08;0.55;;;6.40;99.90;;;;;;5025836;28;20457;-72
2022/03/08 20:40:04;;;;;;;9.02;1.30;;;6.40;99.90;;;;;;5043977;28;20033;-71
2022/03/08 20:42:30;;;;;;;3.65;1.30;;;6.40;99.90;;;;;;5043604;28;20029;-70
2022/03/08 20:44:56;;;;;;;1.83;0.90;;;6.40;99.90;;;;;;5043757;28;20434;-71
2022/03/08 20:47:21;;;;;;;4.40;1.20;;;6.30;99.90;;;;;;5038687;28;20037;-72
2022/03/08 20:49:47;;;;;;;4.07;1.55;;;6.20;99.90;;;;;;5036943;28;20030;-70
2022/03/08 20:52:13;;;;;;;3.67;1.35;;;6.20;99.90;;;;;;5032858;28;20068;-73